Time;durP1;ratioP1;P1;durP2;ratioP2;P2;SDS_P1;SDS_P2;PMS_P1;PMS_P2;Temp;Humidity;BMP_temperature;BMP_pressure;BME280_temperature;BME280_humidity;BME280_pressure;Samples;Min_cycle;Max_cycle;Signal;HPM_P1;HPM_P2
2022/05/23 00:00:35;;;;;;;8.13;7.37;;;;;;;10.82;89.73;101267.13;5032257;28;20434;-47
2022/05/23 00:03:03;;;;;;;7.70;7.20;;;;;;;10.84;90.17;101273.09;5031263;28;20456;-46
2022/05/23 00:05:31;;;;;;;7.23;6.73;;;;;;;10.88;90.36;101261.06;5032566;28;20440;-45
2022/05/23 00:07:59;;;;;;;7.17;6.67;;;;;;;10.93;90.80;101265.84;5032679;28;20431;-49
2022/05/23 00:10:28;;;;;;;7.30;6.60;;;;;;;10.97;90.97;101259.09;5032395;28;20775;-46
2022/05/23 00:12:56;;;;;;;6.60;6.10;;;;;;;11.00;91.15;101259.56;5031244;28;20460;-45
2022/05/23 00:15:23;;;;;;;7.50;6.90;;;;;;;11.02;91.18;101262.06;5032400;28;21114;-47
2022/05/23 00:17:51;;;;;;;7.50;6.80;;;;;;;11.07;91.07;101254.31;5032648;28;20472;-47
2022/05/23 00:20:22;;;;;;;7.03;6.43;;;;;;;11.09;90.95;101263.78;5032254;28;20435;-49
2022/05/23 00:22:50;;;;;;;7.03;6.53;;;;;;;11.11;90.70;101259.06;5031124;28;20452;-46
2022/05/23 00:25:18;;;;;;;7.33;6.73;;;;;;;11.15;90.57;101256.03;5032337;28;20460;-48
2022/05/23 00:27:47;;;;;;;7.33;6.70;;;;;;;11.15;90.51;101251.53;5032255;28;20944;-45
2022/05/23 00:30:18;;;;;;;7.23;6.50;;;;;;;11.18;90.54;101251.16;5032183;28;20436;-46
2022/05/23 00:35:31;;;;;;;6.87;6.07;;;;;;;11.22;90.18;101239.09;5032238;28;20432;-45
2022/05/23 00:37:59;;;;;;;7.70;6.20;;;;;;;11.24;89.94;101241.56;5031930;28;21019;-46
2022/05/23 00:40:37;;;;;;;6.70;6.07;;;;;;;11.23;89.56;101232.72;5031739;28;20438;-47
2022/05/23 00:43:13;;;;;;;5.73;5.43;;;;;;;11.24;89.16;101228.22;5031722;28;20470;-47
2022/05/23 00:45:47;;;;;;;5.60;5.30;;;;;;;11.25;89.10;101228.03;5032174;28;20808;-47
2022/05/23 00:48:16;;;;;;;8.57;6.00;;;;;;;11.25;88.85;101220.03;5032048;28;20443;-48
2022/05/23 00:50:48;;;;;;;6.93;5.87;;;;;;;11.23;88.56;101227.38;5031534;28;20459;-47
2022/05/23 00:53:16;;;;;;;6.83;6.20;;;;;;;11.23;88.23;101227.38;5031479;28;20475;-47
2022/05/23 00:55:48;;;;;;;5.97;5.70;;;;;;;11.22;87.91;101236.41;5032081;28;20435;-48
2022/05/23 00:58:22;;;;;;;9.87;5.90;;;;;;;11.18;87.58;101227.13;5031821;28;20503;-47
2022/05/23 01:00:51;;;;;;;6.00;5.57;;;;;;;11.17;87.60;101235.34;5031533;28;20467;-48
2022/05/23 01:03:20;;;;;;;6.83;6.20;;;;;;;11.14;87.39;101230.38;5031235;28;20464;-45
2022/05/23 01:05:51;;;;;;;5.83;5.63;;;;;;;11.11;87.22;101229.72;5031702;28;20436;-45
2022/05/23 01:08:19;;;;;;;8.03;6.50;;;;;;;11.06;87.21;101221.44;5031814;28;20432;-45
2022/05/23 01:10:47;;;;;;;6.80;6.37;;;;;;;11.03;86.94;101224.50;5031604;28;20455;-49
2022/05/23 01:13:16;;;;;;;5.50;5.30;;;;;;;11.00;87.23;101216.03;5031407;28;20471;-49
2022/05/23 01:15:47;;;;;;;6.03;5.73;;;;;;;10.98;87.32;101220.75;5031588;28;20432;-47
2022/05/23 01:18:15;;;;;;;5.77;5.37;;;;;;;10.95;87.32;101216.63;5035466;28;20467;-45
2022/05/23 01:20:44;;;;;;;6.00;5.43;;;;;;;10.93;87.18;101218.63;5035576;28;20459;-45
2022/05/23 01:23:21;;;;;;;5.90;5.47;;;;;;;10.92;87.51;101213.47;5035372;28;20471;-45
2022/05/23 01:25:50;;;;;;;6.13;5.63;;;;;;;10.91;87.66;101211.81;5035759;28;20438;-49
2022/05/23 01:28:18;;;;;;;6.70;5.70;;;;;;;10.90;87.48;101204.84;5035481;28;20793;-46
2022/05/23 01:30:46;;;;;;;6.37;5.97;;;;;;;10.89;87.59;101206.69;5035430;28;20444;-48
2022/05/23 01:33:15;;;;;;;6.30;5.70;;;;;;;10.90;87.51;101202.19;5035081;28;20471;-45
2022/05/23 01:35:43;;;;;;;6.00;5.60;;;;;;;10.90;87.67;101197.66;5035501;28;20768;-46
2022/05/23 01:38:11;;;;;;;6.17;5.70;;;;;;;10.91;87.96;101203.81;5035397;28;20475;-47
2022/05/23 01:40:38;;;;;;;6.77;6.00;;;;;;;10.90;87.90;101194.97;5035082;28;20458;-50
2022/05/23 01:43:07;;;;;;;6.13;5.63;;;;;;;10.90;87.68;101202.19;5034978;28;20463;-46
2022/05/23 01:45:40;;;;;;;6.13;5.70;;;;;;;10.90;87.54;101205.66;5035498;28;20427;-45
2022/05/23 01:48:08;;;;;;;6.47;5.90;;;;;;;10.87;87.57;101197.22;5035176;28;20436;-45
2022/05/23 01:50:36;;;;;;;5.63;5.33;;;;;;;10.86;87.22;101195.56;5034940;28;20486;-48
2022/05/23 01:53:04;;;;;;;5.90;5.50;;;;;;;10.84;87.38;101194.94;5034690;28;20464;-48
2022/05/23 01:55:32;;;;;;;5.43;5.17;;;;;;;10.83;87.26;101201.25;5035356;28;20438;-45
2022/05/23 01:58:00;;;;;;;5.80;5.27;;;;;;;10.84;87.39;101195.72;5035170;28;20442;-50
2022/05/23 02:03:14;;;;;;;5.93;5.33;;;;;;;10.84;87.21;101195.72;5034747;28;20468;-49
2022/05/23 02:05:43;;;;;;;7.93;6.13;;;;;;;10.83;87.46;101195.94;5034875;28;20435;-48
2022/05/23 02:08:11;;;;;;;5.30;5.10;;;;;;;10.82;87.32;101188.94;5035056;28;20438;-47
2022/05/23 02:10:38;;;;;;;6.20;5.90;;;;;;;10.81;87.23;101187.28;5034686;28;20455;-45
2022/05/23 02:13:06;;;;;;;5.93;5.43;;;;;;;10.80;87.28;101178.47;5034240;28;20470;-45
2022/05/23 02:15:35;;;;;;;6.80;6.30;;;;;;;10.78;87.09;101164.47;5034806;28;20428;-46
2022/05/23 02:18:04;;;;;;;5.97;5.30;;;;;;;10.77;86.92;101172.66;5034634;28;20460;-45
2022/05/23 02:20:32;;;;;;;6.40;5.80;;;;;;;10.73;86.76;101160.72;5034176;28;20478;-47
2022/05/23 02:22:59;;;;;;;5.73;5.43;;;;;;;10.70;86.73;101155.75;5034113;28;20466;-45
2022/05/23 02:25:27;;;;;;;6.20;5.90;;;;;;;10.64;86.89;101152.00;5034578;28;20515;-45
2022/05/23 02:27:56;;;;;;;7.00;6.50;;;;;;;10.61;86.90;101147.03;5034425;28;20452;-49
2022/05/23 02:30:25;;;;;;;8.67;6.50;;;;;;;10.59;87.21;101151.72;5034240;28;20424;-48
2022/05/23 02:32:54;;;;;;;6.87;6.43;;;;;;;10.57;87.56;101146.56;5033783;28;20464;-46
2022/05/23 02:35:22;;;;;;;6.67;6.10;;;;;;;10.55;87.77;101150.44;5034454;28;20438;-44
2022/05/23 02:37:49;;;;;;;6.57;6.27;;;;;;;10.52;87.88;101148.16;5034435;28;20809;-46
2022/05/23 02:40:17;;;;;;;7.23;6.73;;;;;;;10.50;87.89;101143.00;5033972;28;20841;-45
2022/05/23 02:42:45;;;;;;;8.20;6.57;;;;;;;10.46;87.46;101143.56;5033708;28;20459;-44
2022/05/23 02:45:14;;;;;;;7.00;6.50;;;;;;;10.43;87.91;101136.75;5034102;28;20510;-45
2022/05/23 02:47:43;;;;;;;6.13;5.93;;;;;;;10.39;87.96;101140.00;5034300;28;20878;-47
2022/05/23 02:50:13;;;;;;;6.87;6.47;;;;;;;10.36;88.04;101133.16;5034161;28;20424;-45
2022/05/23 02:52:42;;;;;;;7.17;6.70;;;;;;;10.35;88.18;101128.88;5033631;28;20464;-46
2022/05/23 02:55:11;;;;;;;7.47;7.03;;;;;;;10.34;88.52;101132.53;5034054;28;20436;-47
2022/05/23 02:57:39;;;;;;;7.67;7.10;;;;;;;10.33;88.60;101117.56;5033904;28;20440;-48
2022/05/23 03:00:10;;;;;;;10.93;6.50;;;;;;;10.33;88.85;101120.25;5033720;28;20472;-51
2022/05/23 03:05:24;;;;;;;7.07;6.67;;;;;;;10.32;88.91;101115.09;5033772;28;20464;-46
2022/05/23 03:07:52;;;;;;;7.17;6.67;;;;;;;10.31;89.11;101111.59;5033826;28;20964;-47
2022/05/23 03:10:20;;;;;;;7.77;6.97;;;;;;;10.31;89.00;101100.09;5033327;28;20428;-45
2022/05/23 03:12:47;;;;;;;7.30;6.80;;;;;;;10.29;88.96;101107.47;5033394;28;20460;-49
2022/05/23 03:15:15;;;;;;;7.67;7.07;;;;;;;10.25;88.81;101095.50;5033710;28;20523;-47
2022/05/23 03:17:43;;;;;;;8.17;7.33;;;;;;;10.26;89.21;101103.31;5033628;28;20439;-48
2022/05/23 03:20:12;;;;;;;7.20;6.57;;;;;;;10.25;89.24;101104.31;5033238;28;20468;-45
2022/05/23 03:28:12;;;;;;;6.93;6.40;;;;;;;10.42;90.75;101092.44;5012523;28;20463;-49
2022/05/23 03:30:40;;;;;;;7.27;6.60;;;;;;;10.51;90.99;101080.66;5013368;28;20445;-48
2022/05/23 03:33:10;;;;;;;6.77;6.30;;;;;;;10.59;91.20;101084.22;5012975;28;20467;-48
2022/05/23 03:35:39;;;;;;;7.87;6.53;;;;;;;10.68;91.04;101073.25;5013570;28;20922;-46
2022/05/23 03:38:08;;;;;;;6.20;5.73;;;;;;;10.81;90.92;101081.38;5013657;28;20844;-47
2022/05/23 03:40:37;;;;;;;6.03;5.60;;;;;;;10.92;90.54;101082.75;5012627;28;20862;-46
2022/05/23 03:43:06;;;;;;;6.20;5.90;;;;;;;11.05;90.22;101082.88;5013189;28;20468;-45
2022/05/23 03:45:36;;;;;;;6.97;6.27;;;;;;;11.19;89.90;101079.31;5013225;28;20429;-45
2022/05/23 03:48:05;;;;;;;7.50;6.60;;;;;;;11.35;90.01;101078.22;5013269;28;21068;-47
2022/05/23 03:50:33;;;;;;;6.37;5.63;;;;;;;11.48;89.15;101076.44;5012858;28;20429;-49
2022/05/23 03:53:01;;;;;;;7.13;6.53;;;;;;;11.60;88.20;101080.25;5012822;28;20476;-48
2022/05/23 03:55:31;;;;;;;6.47;5.90;;;;;;;11.73;87.23;101066.19;5013257;28;20798;-46
2022/05/23 03:57:58;;;;;;;6.50;5.90;;;;;;;11.88;87.20;101071.41;5013123;28;20433;-48
2022/05/23 04:00:26;;;;;;;5.93;5.50;;;;;;;12.00;86.44;101061.81;5012666;28;20500;-48
2022/05/23 04:02:54;;;;;;;6.87;6.37;;;;;;;12.09;84.71;101063.28;5012612;28;20471;-48
2022/05/23 04:05:21;;;;;;;6.03;5.67;;;;;;;12.20;84.34;101065.41;5013065;28;20441;-45
2022/05/23 04:07:49;;;;;;;5.37;4.90;;;;;;;12.30;83.92;101067.69;5012936;28;20806;-45
2022/05/23 04:10:18;;;;;;;5.97;5.73;;;;;;;12.35;82.97;101073.28;5012350;28;20536;-47
2022/05/23 04:12:47;;;;;;;6.43;5.83;;;;;;;12.45;83.42;101076.41;5012232;28;20509;-45
2022/05/23 04:15:16;;;;;;;6.33;5.93;;;;;;;12.53;83.01;101076.22;5012707;28;20433;-45
2022/05/23 04:17:43;;;;;;;6.60;6.00;;;;;;;12.59;81.97;101078.91;5012841;28;20444;-46
2022/05/23 04:20:12;;;;;;;6.80;5.53;;;;;;;12.70;81.77;101064.94;5012505;28;20472;-45
2022/05/23 04:22:39;;;;;;;6.43;5.90;;;;;;;12.81;81.52;101065.38;5012069;28;21005;-47
2022/05/23 04:25:07;;;;;;;8.83;6.20;;;;;;;12.89;80.84;101065.19;5012489;28;20437;-50
2022/05/23 04:27:35;;;;;;;7.00;6.50;;;;;;;12.94;80.53;101057.34;5012709;28;20441;-47
2022/05/23 04:30:08;;;;;;;6.33;5.80;;;;;;;13.03;80.41;101058.81;5012594;28;20425;-45
2022/05/23 04:35:32;;;;;;;6.93;6.50;;;;;;;13.29;79.68;101057.00;4990882;28;20434;-47
2022/05/23 04:38:00;;;;;;;6.63;6.30;;;;;;;13.39;77.95;101056.59;5007662;28;21040;-50
2022/05/23 04:40:29;;;;;;;6.77;6.20;;;;;;;13.66;78.69;101054.69;5012489;28;21024;-48
2022/05/23 04:42:57;;;;;;;6.80;6.40;;;;;;;14.56;81.07;101059.97;5012229;28;20977;-50
2022/05/23 04:45:26;;;;;;;5.53;5.03;;;;;;;15.93;74.34;101049.97;5038510;23;20429;-43
2022/05/23 04:50:39;;;;;;;6.47;5.60;;;;;;;16.88;66.67;101039.44;5051255;28;20423;-44
2022/05/23 04:53:07;;;;;;;8.27;5.47;;;;;;;16.96;65.87;101036.41;5051321;28;20461;-47
2022/05/23 04:55:36;;;;;;;5.87;5.37;;;;;;;16.90;65.18;101034.66;5051841;28;20451;-42
2022/05/23 04:58:05;;;;;;;5.20;4.73;;;;;;;16.81;64.73;101026.09;5051749;28;20778;-44
2022/05/23 05:00:34;;;;;;;6.03;5.63;;;;;;;16.61;63.60;101022.84;5051381;28;20540;-48
2022/05/23 05:03:09;;;;;;;5.37;5.07;;;;;;;16.40;64.49;101023.31;5051465;28;20516;-44
2022/05/23 05:05:36;;;;;;;5.37;5.00;;;;;;;17.42;67.41;101014.91;5051534;28;20451;-42
2022/05/23 05:08:05;;;;;;;5.87;5.10;;;;;;;19.02;62.77;101018.41;5051737;28;20434;-46
2022/05/23 05:10:32;;;;;;;5.10;4.70;;;;;;;20.37;59.51;101016.00;5051428;28;20434;-50
2022/05/23 05:13:00;;;;;;;4.30;4.10;;;;;;;21.70;53.11;101006.00;5051118;28;20999;-48
2022/05/23 05:15:29;;;;;;;4.47;4.27;;;;;;;22.72;53.23;101001.78;5051298;28;20422;-52
2022/05/23 05:17:58;;;;;;;6.93;3.47;;;;;;;24.03;48.27;100998.84;5051679;28;20442;-44
2022/05/23 05:20:26;;;;;;;3.80;3.50;;;;;;;24.60;47.29;101001.84;5051519;28;20470;-51
2022/05/23 05:22:53;;;;;;;3.97;3.77;;;;;;;25.01;45.92;100985.19;5051058;28;20465;-49
2022/05/23 05:25:21;;;;;;;4.90;4.03;;;;;;;24.98;44.91;100992.03;5051435;28;20430;-46
2022/05/23 05:27:49;;;;;;;4.93;4.03;;;;;;;25.96;44.62;100980.63;5051079;28;20457;-45
2022/05/23 05:30:19;;;;;;;4.37;3.80;;;;;;;26.45;39.56;100976.72;5051292;28;20426;-50
2022/05/23 05:32:53;;;;;;;4.00;3.60;;;;;;;26.83;41.18;100983.78;5051119;28;20471;-49
2022/05/23 05:35:27;;;;;;;5.10;3.10;;;;;;;27.17;37.20;100976.09;5051316;28;20521;-46
2022/05/23 05:37:59;;;;;;;5.10;3.70;;;;;;;25.95;38.12;100973.56;5051440;28;20445;-46
2022/05/23 05:40:30;;;;;;;3.57;3.37;;;;;;;24.86;41.34;100975.22;5050976;28;20474;-46
2022/05/23 05:43:01;;;;;;;4.10;3.47;;;;;;;25.51;41.62;100962.88;5050766;28;20454;-47
2022/05/23 05:45:32;;;;;;;3.73;3.50;;;;;;;26.10;35.99;100967.88;5051341;28;20447;-48
2022/05/23 05:48:01;;;;;;;3.90;3.60;;;;;;;26.94;39.63;100966.13;5051283;28;20952;-47
2022/05/23 05:50:47;;;;;;;4.33;3.60;;;;;;;27.63;37.67;100959.63;5050933;28;20434;-50
2022/05/23 05:53:20;;;;;;;5.57;2.97;;;;;;;28.06;36.78;100956.56;5050848;28;20458;-46
2022/05/23 05:55:48;;;;;;;3.63;2.83;;;;;;;28.65;37.77;100959.03;5051340;28;20457;-44
2022/05/23 05:58:16;;;;;;;3.00;2.80;;;;;;;29.25;35.83;100953.13;5051226;28;20451;-47
2022/05/23 06:00:48;;;;;;;5.33;3.40;;;;;;;29.27;33.61;100948.16;5050734;28;20227;-49
2022/05/23 06:03:16;;;;;;;3.43;2.87;;;;;;;29.36;31.44;100946.25;5052600;28;20223;-47
2022/05/23 06:11:24;;;;;;;2.90;2.70;;;;;;;29.85;32.28;100937.72;5054634;28;20486;-46
2022/05/23 06:13:53;;;;;;;5.43;2.50;;;;;;;29.83;30.18;100928.16;5054252;28;20227;-49
2022/05/23 06:16:21;;;;;;;2.80;2.60;;;;;;;30.00;32.39;100933.69;5054808;28;20212;-46
2022/05/23 06:18:49;;;;;;;3.00;2.67;;;;;;;30.23;32.40;100937.91;5054817;28;20196;-44
2022/05/23 06:21:19;;;;;;;4.10;2.70;;;;;;;30.45;31.98;100928.72;5054395;28;20307;-49
2022/05/23 06:23:47;;;;;;;3.10;2.87;;;;;;;29.93;27.56;100936.09;5054081;28;20220;-47
2022/05/23 06:26:15;;;;;;;3.67;2.17;;;;;;;29.75;28.57;100924.22;5054216;28;20219;-49
2022/05/23 06:28:43;;;;;;;2.30;2.10;;;;;;;29.85;30.86;100926.72;5054546;28;20205;-46
2022/05/23 06:31:12;;;;;;;4.00;2.30;;;;;;;29.97;29.58;100923.34;5054195;28;20677;-51
2022/05/23 06:33:40;;;;;;;2.70;2.50;;;;;;;29.38;30.85;100920.09;5053909;28;20252;-47
2022/05/23 06:36:08;;;;;;;3.73;2.50;;;;;;;28.46;30.52;100917.25;5054236;28;20216;-44
2022/05/23 06:38:38;;;;;;;2.83;2.63;;;;;;;28.74;28.63;100915.19;5054110;28;20215;-48
2022/05/23 06:41:09;;;;;;;8.60;2.80;;;;;;;28.58;31.71;100909.28;5054197;28;20306;-49
2022/05/23 06:43:38;;;;;;;2.50;2.30;;;;;;;28.57;31.10;100896.66;5053706;28;20235;-52
2022/05/23 06:46:07;;;;;;;3.00;2.70;;;;;;;28.47;30.07;100889.50;5053996;28;20220;-48
2022/05/23 06:48:35;;;;;;;2.93;2.63;;;;;;;28.34;30.42;100887.63;5054033;28;20203;-49
2022/05/23 06:51:03;;;;;;;2.83;2.30;;;;;;;28.92;31.05;100884.78;5053713;28;20196;-48
2022/05/23 06:53:31;;;;;;;4.70;2.23;;;;;;;28.96;30.44;100883.03;5053511;28;20227;-49
2022/05/23 06:56:00;;;;;;;2.53;2.30;;;;;;;28.96;29.98;100888.53;5053967;28;20238;-48
2022/05/23 06:58:28;;;;;;;4.07;2.33;;;;;;;28.97;29.80;100879.16;5053993;28;20196;-48
2022/05/23 07:00:56;;;;;;;2.50;2.30;;;;;;;29.31;30.51;100870.28;5053537;28;20207;-45
2022/05/23 07:03:24;;;;;;;4.50;2.73;;;;;;;29.30;29.90;100876.13;5053424;28;20597;-49
2022/05/23 07:14:08;;;;;;;2.43;2.23;;;;;;;28.64;28.63;100869.63;5052214;28;20230;-48
2022/05/23 07:16:36;;;;;;;3.60;2.70;;;;;;;28.40;29.27;100863.63;5053648;28;20222;-46
2022/05/23 07:19:04;;;;;;;2.97;2.60;;;;;;;28.18;29.67;100861.69;5053486;28;20283;-50
2022/05/23 07:21:32;;;;;;;2.40;2.20;;;;;;;28.23;29.56;100867.03;5053234;28;20652;-46
2022/05/23 07:24:00;;;;;;;2.40;2.30;;;;;;;28.50;30.95;100855.13;5053017;28;20230;-46
2022/05/23 07:26:29;;;;;;;2.93;2.50;;;;;;;28.23;29.69;100852.50;5053203;28;20216;-50
2022/05/23 07:28:57;;;;;;;5.43;3.10;;;;;;;27.85;28.62;100855.56;5053549;28;20192;-49
2022/05/23 07:31:25;;;;;;;2.70;2.43;;;;;;;28.15;30.51;100856.81;5053243;28;20204;-51
2022/05/23 07:33:53;;;;;;;2.30;2.10;;;;;;;28.00;29.49;100851.66;5052831;28;20224;-47
2022/05/23 07:36:20;;;;;;;3.13;2.17;;;;;;;27.66;31.02;100854.91;5053131;28;20222;-47
2022/05/23 07:38:48;;;;;;;2.80;2.60;;;;;;;27.79;31.53;100856.81;5053155;28;20206;-51
2022/05/23 07:41:16;;;;;;;2.47;2.27;;;;;;;27.94;31.03;100850.16;5052587;28;20199;-49
2022/05/23 07:43:45;;;;;;;2.43;2.23;;;;;;;27.58;29.78;100858.38;5052610;28;20608;-47
2022/05/23 07:46:15;;;;;;;2.60;2.40;;;;;;;27.35;31.32;100857.47;5052898;28;20224;-47
2022/05/23 07:48:45;;;;;;;3.23;2.80;;;;;;;27.17;31.04;100857.56;5052816;28;20234;-47
2022/05/23 07:51:15;;;;;;;3.03;2.73;;;;;;;27.28;31.66;100843.34;5052647;28;20308;-49
2022/05/23 08:02:01;;;;;;;4.07;3.70;;;;;;;25.61;32.97;100830.84;5052238;28;20497;-46
2022/05/23 08:04:30;;;;;;;3.03;2.83;;;;;;;25.17;33.06;100831.13;5052186;28;20463;-47
2022/05/23 08:06:57;;;;;;;3.63;2.53;;;;;;;24.57;34.67;100827.09;5052575;28;20455;-46
2022/05/23 08:09:25;;;;;;;4.43;2.90;;;;;;;24.18;35.44;100813.53;5052397;28;20439;-44
2022/05/23 08:11:53;;;;;;;3.70;2.90;;;;;;;23.51;36.25;100798.69;5052089;28;20920;-51
2022/05/23 08:14:23;;;;;;;6.93;3.20;;;;;;;23.54;36.01;100800.03;5051890;28;20463;-45
2022/05/23 08:16:52;;;;;;;8.00;3.03;;;;;;;23.19;36.76;100803.72;5052264;28;20446;-46
2022/05/23 08:19:20;;;;;;;4.07;3.27;;;;;;;23.00;37.59;100802.69;5052414;28;20435;-47
2022/05/23 08:21:54;;;;;;;3.37;3.07;;;;;;;22.86;37.58;100802.47;5052086;28;20486;-48
2022/05/23 08:24:22;;;;;;;3.40;3.10;;;;;;;23.17;37.01;100799.66;5051790;28;20466;-47
2022/05/23 08:26:51;;;;;;;3.13;2.80;;;;;;;23.45;37.55;100791.63;5051887;28;20470;-45
2022/05/23 08:29:18;;;;;;;3.00;2.80;;;;;;;23.53;36.78;100787.53;5052115;28;20439;-45
2022/05/23 08:31:48;;;;;;;3.47;3.17;;;;;;;23.73;36.94;100792.03;5052039;28;20426;-44
2022/05/23 08:34:16;;;;;;;5.13;3.57;;;;;;;23.89;36.61;100777.22;5051730;28;20501;-48
2022/05/23 08:36:45;;;;;;;6.00;3.20;;;;;;;23.74;36.36;100789.03;5052014;28;20450;-47
2022/05/23 08:39:13;;;;;;;3.10;2.90;;;;;;;23.01;37.38;100777.94;5051995;28;20465;-47
2022/05/23 08:41:44;;;;;;;3.67;3.37;;;;;;;23.10;37.34;100776.28;5051516;28;20431;-49
2022/05/23 08:44:18;;;;;;;3.47;2.80;;;;;;;23.17;37.61;100775.97;5051562;28;20991;-48
2022/05/23 08:46:54;;;;;;;3.37;3.17;;;;;;;22.94;38.24;100771.16;5051684;28;20463;-43
2022/05/23 08:49:45;;;;;;;3.30;2.93;;;;;;;22.72;37.84;100768.78;5051911;28;20438;-47
2022/05/23 08:52:20;;;;;;;4.47;3.07;;;;;;;22.69;38.83;100760.38;5047458;28;20526;-48
2022/05/23 08:54:55;;;;;;;3.37;3.17;;;;;;;22.50;39.18;100768.25;5051929;28;20418;-46
2022/05/23 08:57:32;;;;;;;4.00;3.60;;;;;;;22.36;39.90;100756.31;5051870;28;20453;-44
2022/05/23 09:00:05;;;;;;;3.30;3.00;;;;;;;22.44;39.19;100756.59;5051673;28;20429;-44
2022/05/23 09:02:41;;;;;;;5.60;3.20;;;;;;;22.42;40.17;100747.09;5050886;28;20462;-45
2022/05/23 09:05:13;;;;;;;3.10;2.90;;;;;;;22.47;39.14;100744.34;5051829;28;20442;-47
2022/05/23 09:07:57;;;;;;;3.43;3.13;;;;;;;22.76;39.70;100741.88;5051750;28;20438;-49
2022/05/23 09:10:30;;;;;;;3.80;3.40;;;;;;;22.94;39.52;100742.06;5051441;28;20520;-44
2022/05/23 09:12:58;;;;;;;4.23;3.60;;;;;;;22.87;39.56;100738.03;5051014;28;20469;-43
2022/05/23 09:15:26;;;;;;;3.80;3.50;;;;;;;22.94;39.00;100736.63;5051398;28;20442;-44
2022/05/23 09:17:59;;;;;;;3.97;3.73;;;;;;;22.69;38.91;100730.47;5051476;28;20445;-49
2022/05/23 09:20:34;;;;;;;3.60;3.23;;;;;;;22.95;38.90;100723.84;5051452;28;20427;-48
2022/05/23 09:23:07;;;;;;;6.57;4.13;;;;;;;23.12;39.68;100724.28;5050981;28;20466;-46
2022/05/23 09:25:43;;;;;;;4.47;3.20;;;;;;;22.99;38.84;100727.63;5051665;28;20458;-44
2022/05/23 09:28:19;;;;;;;3.63;3.33;;;;;;;22.77;39.13;100716.28;5051367;28;20435;-43
2022/05/23 09:30:57;;;;;;;5.43;3.70;;;;;;;22.70;39.16;100722.03;5051301;28;20430;-48
2022/05/23 09:33:28;;;;;;;4.23;3.50;;;;;;;22.71;40.24;100711.97;5050993;28;20462;-48
2022/05/23 09:36:09;;;;;;;3.70;3.40;;;;;;;22.87;39.76;100708.94;5051171;28;20453;-45
2022/05/23 09:38:47;;;;;;;3.10;2.80;;;;;;;22.76;40.40;100711.97;5054296;28;20431;-45
2022/05/23 09:47:49;;;;;;;3.63;3.37;;;;;;;22.93;39.90;100698.84;5055049;28;20823;-45
2022/05/23 09:50:35;;;;;;;3.93;3.50;;;;;;;22.97;39.89;100697.16;5054754;28;20465;-50
2022/05/23 09:53:16;;;;;;;3.50;3.27;;;;;;;23.34;40.65;100683.91;5054742;28;20458;-43
2022/05/23 09:55:43;;;;;;;4.37;3.40;;;;;;;23.07;39.67;100680.81;5055169;28;20450;-49
2022/05/23 09:58:21;;;;;;;3.80;3.40;;;;;;;23.10;39.99;100677.53;5055036;28;20441;-44
2022/05/23 10:00:59;;;;;;;6.17;4.23;;;;;;;23.31;40.12;100664.63;5054640;28;20517;-48
2022/05/23 10:03:28;;;;;;;4.63;3.47;;;;;;;23.60;39.93;100651.91;5054541;28;20478;-48
2022/05/23 10:06:07;;;;;;;3.47;3.17;;;;;;;23.46;40.02;100648.22;5054852;28;20481;-47
2022/05/23 10:08:37;;;;;;;4.07;3.67;;;;;;;23.67;39.57;100645.03;5054742;28;20438;-44
2022/05/23 10:11:07;;;;;;;4.90;3.93;;;;;;;23.69;39.54;100645.56;5054431;28;20814;-47
2022/05/23 10:13:37;;;;;;;4.90;3.60;;;;;;;23.77;39.36;100646.88;5054219;28;21013;-45
2022/05/23 10:16:16;;;;;;;3.20;2.90;;;;;;;23.96;40.01;100645.03;5054954;28;20523;-47
2022/05/23 10:18:51;;;;;;;3.87;3.60;;;;;;;23.82;39.27;100635.09;5054744;28;20550;-47
2022/05/23 10:21:27;;;;;;;4.27;3.97;;;;;;;23.72;39.09;100629.75;5054331;28;20446;-45
2022/05/23 10:24:05;;;;;;;4.30;4.00;;;;;;;23.45;39.96;100625.63;5054039;28;20474;-48
2022/05/23 10:26:36;;;;;;;5.70;4.47;;;;;;;23.63;39.42;100621.38;5054653;28;20836;-44
2022/05/23 10:29:09;;;;;;;4.63;4.33;;;;;;;23.80;39.43;100621.78;5054537;28;20438;-49
2022/05/23 10:31:43;;;;;;;5.67;3.40;;;;;;;23.80;39.98;100607.38;5054221;28;21097;-46
2022/05/23 10:34:15;;;;;;;4.40;4.10;;;;;;;23.75;39.44;100612.84;5053859;28;20463;-46
2022/05/23 10:36:49;;;;;;;6.20;3.73;;;;;;;23.74;39.44;100600.34;5054425;28;20457;-47
2022/05/23 10:42:15;;;;;;;4.20;3.90;;;;;;;23.59;39.37;100591.22;5053993;28;20415;-46
2022/05/23 10:45:04;;;;;;;5.73;4.03;;;;;;;23.72;40.00;100595.16;5054184;28;20478;-48
2022/05/23 10:47:48;;;;;;;5.10;4.60;;;;;;;23.85;39.48;100591.78;5053887;28;20462;-46
2022/05/23 10:50:23;;;;;;;6.87;4.43;;;;;;;23.92;39.63;100595.00;5052493;28;20807;-46
2022/05/23 10:53:02;;;;;;;4.20;3.90;;;;;;;23.68;39.70;100600.38;5053366;28;20830;-44
2022/05/23 10:55:34;;;;;;;5.60;4.07;;;;;;;23.58;40.13;100588.78;5054085;28;20824;-43
2022/05/23 10:58:13;;;;;;;3.60;3.40;;;;;;;23.79;39.91;100586.66;5054023;28;20450;-44
2022/05/23 11:00:49;;;;;;;4.27;3.80;;;;;;;23.80;40.26;100566.50;5054196;28;20441;-51
2022/05/23 11:03:24;;;;;;;5.73;3.70;;;;;;;23.76;39.89;100568.19;5053165;28;20514;-46
2022/05/23 11:06:01;;;;;;;4.07;3.67;;;;;;;23.92;40.09;100578.66;5053913;28;20516;-46
2022/05/23 11:08:51;;;;;;;4.93;4.53;;;;;;;24.10;40.32;100566.19;5053691;28;21022;-51
2022/05/23 11:11:31;;;;;;;4.77;4.47;;;;;;;23.87;40.02;100567.78;5053447;28;20526;-49
2022/05/23 11:14:10;;;;;;;4.83;4.33;;;;;;;24.11;39.48;100573.28;5053200;28;20469;-44
2022/05/23 11:16:52;;;;;;;4.50;4.20;;;;;;;24.19;39.78;100562.53;5053644;28;20450;-46
2022/05/23 11:19:30;;;;;;;5.67;4.70;;;;;;;24.33;39.32;100559.94;5053521;28;20485;-50
2022/05/23 11:22:04;;;;;;;5.10;4.63;;;;;;;24.38;39.65;100561.78;5053196;28;20430;-48
2022/05/23 11:24:40;;;;;;;4.43;4.10;;;;;;;24.22;38.94;100550.28;5052866;28;20500;-45
2022/05/23 11:35:48;;;;;;;4.03;3.80;;;;;;;24.23;39.81;100536.34;5053063;28;20974;-44
2022/05/23 11:38:18;;;;;;;5.23;4.73;;;;;;;24.21;39.11;100538.56;5053119;28;20454;-47
2022/05/23 11:41:04;;;;;;;4.83;4.33;;;;;;;24.23;39.15;100536.34;5052812;28;20484;-46
2022/05/23 11:43:32;;;;;;;4.80;4.30;;;;;;;24.31;38.89;100512.28;5052504;28;20983;-46
2022/05/23 11:46:02;;;;;;;4.57;4.00;;;;;;;24.21;39.23;100514.03;5052849;28;20867;-46
2022/05/23 11:48:43;;;;;;;4.90;4.27;;;;;;;24.05;39.83;100500.84;5053004;28;20805;-46
2022/05/23 11:51:27;;;;;;;3.43;3.23;;;;;;;24.09;39.05;100510.06;5052553;28;20431;-46
2022/05/23 11:54:03;;;;;;;4.23;4.03;;;;;;;24.23;39.06;100509.09;5052367;28;20456;-46
2022/05/23 11:56:55;;;;;;;4.10;3.70;;;;;;;23.67;39.94;100487.13;5052862;28;20469;-48
2022/05/23 12:00:04;;;;;;;6.73;3.97;;;;;;;23.69;40.45;100490.38;5013006;28;20510;-45
2022/05/23 12:02:37;;;;;;;5.27;4.37;;;;;;;23.47;40.17;100483.81;5052232;28;20477;-46
2022/05/23 12:05:30;;;;;;;4.00;3.70;;;;;;;23.68;40.42;100479.78;5052603;28;20477;-49
2022/05/23 12:08:02;;;;;;;5.33;3.60;;;;;;;23.87;39.27;100477.91;5052360;28;20434;-44
2022/05/23 12:10:53;;;;;;;4.67;3.83;;;;;;;24.12;39.29;100480.38;5052397;28;20795;-46
2022/05/23 12:13:39;;;;;;;6.00;4.20;;;;;;;24.13;38.65;100475.72;5052083;28;20470;-50
2022/05/23 12:16:46;;;;;;;8.37;4.10;;;;;;;24.25;39.24;100467.94;5052259;28;20460;-48
2022/05/23 12:19:24;;;;;;;4.80;4.40;;;;;;;24.24;39.17;100466.31;5052479;28;20559;-47
2022/05/23 12:21:51;;;;;;;5.73;3.70;;;;;;;24.23;38.69;100464.69;5052611;28;20430;-48
2022/05/23 12:24:28;;;;;;;7.03;4.33;;;;;;;24.39;38.94;100452.47;5051683;28;20477;-46
2022/05/23 12:27:28;;;;;;;4.00;3.70;;;;;;;24.39;39.12;100452.47;5052362;28;20462;-45
2022/05/23 12:30:34;;;;;;;4.60;3.70;;;;;;;24.46;39.08;100438.47;5052264;28;20446;-45
2022/05/23 12:33:14;;;;;;;4.10;3.90;;;;;;;24.54;38.10;100432.34;5051494;28;20465;-46
2022/05/23 12:36:07;;;;;;;5.50;4.00;;;;;;;24.45;38.66;100432.22;5052094;28;20811;-49
2022/05/23 12:38:49;;;;;;;4.30;3.07;;;;;;;24.48;38.36;100419.91;5049348;28;20439;-47
2022/05/23 12:41:40;;;;;;;6.60;3.93;;;;;;;24.39;37.81;100429.84;5051633;28;20453;-47
2022/05/23 12:44:59;;;;;;;4.33;4.00;;;;;;;24.70;38.86;100423.63;5051386;28;20496;-47